createdAt,value
2019-05-17T00:01:07.618Z,97670.09
2019-05-17T00:03:37.501Z,97667.19
2019-05-17T00:06:07.130Z,97666.66
2019-05-17T00:08:38.207Z,97660.73
2019-05-17T00:11:08.338Z,97655.67
2019-05-17T00:13:38.890Z,97653.80
2019-05-17T00:16:08.678Z,97649.80
2019-05-17T00:18:38.299Z,97641.20
2019-05-17T00:21:07.955Z,97644.95
2019-05-17T00:23:37.688Z,97636.41
2019-05-17T00:26:07.464Z,97644.18
2019-05-17T00:28:37.597Z,97634.02
2019-05-17T00:31:07.615Z,97639.13
2019-05-17T00:33:37.316Z,97637.24
2019-05-17T00:36:07.191Z,97630.55
2019-05-17T00:38:47.883Z,97635.38
2019-05-17T00:41:08.330Z,97631.63
2019-05-17T00:43:37.935Z,97632.98
2019-05-17T00:46:07.657Z,97624.67
2019-05-17T00:48:37.467Z,97624.67
2019-05-17T00:51:10.287Z,97630.02
2019-05-17T00:53:38.599Z,97622.53
2019-05-17T00:56:08.223Z,97633.23
2019-05-17T00:58:37.874Z,97629.77
2019-05-17T01:01:08.467Z,97626.81
2019-05-17T01:03:38.339Z,97627.63
2019-05-17T01:06:07.971Z,97619.06
2019-05-17T01:08:37.632Z,97614.52
2019-05-17T01:11:07.517Z,97614.52
2019-05-17T01:13:37.578Z,97617.20
2019-05-17T01:16:07.555Z,97610.76
2019-05-17T01:18:37.366Z,97605.69
2019-05-17T01:21:08.133Z,97601.14
2019-05-17T01:23:37.761Z,97606.75
2019-05-17T01:26:07.731Z,97600.87
2019-05-17T01:28:37.454Z,97604.36
2019-05-17T01:31:07.111Z,97604.61
2019-05-17T01:33:36.995Z,97607.84
2019-05-17T01:36:07.043Z,97600.06
2019-05-17T01:38:37.734Z,97600.87
2019-05-17T01:41:07.586Z,97597.64
2019-05-17T01:43:37.217Z,97596.83
2019-05-17T01:46:06.929Z,97592.57
2019-05-17T01:48:36.776Z,97593.37
2019-05-17T01:51:07.533Z,97589.89
2019-05-17T01:53:37.426Z,97587.98
2019-05-17T01:56:07.123Z,97586.64
2019-05-17T01:58:36.769Z,97582.11
2019-05-17T02:01:07.628Z,97584.25
2019-05-17T02:03:37.710Z,97581.29
2019-05-17T02:06:07.732Z,97588.49
2019-05-17T02:08:37.532Z,97593.31
2019-05-17T02:11:07.220Z,97593.31
2019-05-17T02:13:37.556Z,97580.78
2019-05-17T02:16:07.622Z,97582.39
2019-05-17T02:18:37.463Z,97584.24
2019-05-17T02:21:07.325Z,97579.13
2019-05-17T02:23:37.345Z,97577.58
2019-05-17T02:26:07.418Z,97589.29
2019-05-17T02:28:37.106Z,97581.00
2019-05-17T02:31:06.891Z,97579.44
2019-05-17T02:33:36.730Z,97567.92
2019-05-17T02:36:06.437Z,97573.47
2019-05-17T02:38:36.061Z,97572.69
2019-05-17T02:41:05.776Z,97578.28
2019-05-17T02:43:35.565Z,97574.55
2019-05-17T02:46:05.517Z,97579.44
2019-05-17T02:48:35.161Z,97578.89
2019-05-17T02:51:04.845Z,97574.27
2019-05-17T02:53:34.551Z,97572.62
2019-05-17T02:56:04.243Z,97576.87
2019-05-17T02:58:33.885Z,97571.06
2019-05-17T03:01:04.213Z,97576.37
2019-05-17T03:03:33.950Z,97570.97
2019-05-17T03:06:03.724Z,97570.97
2019-05-17T03:08:34.352Z,97570.25
2019-05-17T03:11:04.926Z,97569.45
2019-05-17T03:13:34.562Z,97563.80
2019-05-17T03:16:04.439Z,97564.56
2019-05-17T03:18:34.156Z,97564.28
2019-05-17T03:21:04.388Z,97557.11
2019-05-17T03:23:34.413Z,97560.00
2019-05-17T03:26:04.238Z,97562.47
2019-05-17T03:28:34.321Z,97558.78
2019-05-17T03:31:07.678Z,97562.75
2019-05-17T03:33:37.556Z,97555.76
2019-05-17T03:36:07.786Z,97565.56
2019-05-17T03:38:37.628Z,97566.38
2019-05-17T03:41:18.249Z,97575.94
2019-05-17T03:43:41.243Z,97573.85
2019-05-17T03:46:13.589Z,97568.78
2019-05-17T03:48:43.586Z,97569.12
2019-05-17T03:51:13.565Z,97575.23
2019-05-17T03:53:44.207Z,97578.61
2019-05-17T03:56:14.210Z,97570.37
2019-05-17T03:58:43.914Z,97569.56
2019-05-17T04:01:14.273Z,97579.53
2019-05-17T04:03:44.428Z,97572.45
2019-05-17T04:06:14.120Z,97580.70
2019-05-17T04:08:43.768Z,97577.51
2019-05-17T04:11:26.640Z,97573.44
2019-05-17T04:13:44.756Z,97584.94
2019-05-17T04:16:14.474Z,97580.42
2019-05-17T04:18:44.295Z,97583.70
2019-05-17T04:21:13.914Z,97582.36
2019-05-17T04:23:43.559Z,97586.86
2019-05-17T04:26:13.708Z,97588.37
2019-05-17T04:28:44.250Z,97583.87
2019-05-17T04:31:14.089Z,97583.57
2019-05-17T04:33:43.739Z,97587.56
2019-05-17T04:36:13.517Z,97589.17
2019-05-17T04:38:43.743Z,97595.84
2019-05-17T04:41:13.602Z,97586.21
2019-05-17T04:43:43.438Z,97591.79
2019-05-17T04:46:13.254Z,97592.52
2019-05-17T04:48:43.927Z,97582.98
2019-05-17T04:51:13.946Z,97582.75
2019-05-17T04:53:43.540Z,97586.73
2019-05-17T04:56:14.137Z,97584.82
2019-05-17T04:58:44.158Z,97581.39
2019-05-17T05:01:13.816Z,97580.86
2019-05-17T05:03:43.466Z,97583.25
2019-05-17T05:06:13.610Z,97583.52
2019-05-17T05:08:43.427Z,97580.33
2019-05-17T05:11:13.111Z,97580.05
2019-05-17T05:13:42.862Z,97579.01
2019-05-17T05:16:13.426Z,97572.06
2019-05-17T05:18:43.464Z,97576.64
2019-05-17T05:21:13.156Z,97577.70
2019-05-17T05:23:42.786Z,97568.09
2019-05-17T05:26:12.491Z,97566.24
2019-05-17T05:28:42.153Z,97568.16
2019-05-17T05:31:13.254Z,97565.20
2019-05-17T05:33:43.158Z,97560.69
2019-05-17T05:36:12.789Z,97563.09
2019-05-17T05:38:42.433Z,97553.00
2019-05-17T05:41:12.303Z,97562.09
2019-05-17T05:43:42.160Z,97555.73
2019-05-17T05:46:11.855Z,97556.56
2019-05-17T05:48:41.713Z,97556.56
2019-05-17T05:51:13.686Z,97556.28
2019-05-17T05:53:42.871Z,97554.17
2019-05-17T05:56:13.276Z,97544.84
2019-05-17T05:58:43.218Z,97543.23
2019-05-17T06:01:13.028Z,97543.77
2019-05-17T06:03:42.750Z,97542.45
2019-05-17T06:06:12.560Z,97541.16
2019-05-17T06:08:42.170Z,97539.82
2019-05-17T06:11:12.350Z,97533.69
2019-05-17T06:13:42.091Z,97534.75
2019-05-17T06:16:12.084Z,97531.02
2019-05-17T06:18:42.505Z,97528.39
2019-05-17T06:21:12.381Z,97530.81
2019-05-17T06:23:42.553Z,97535.88
2019-05-17T06:26:12.622Z,97527.34
2019-05-17T06:28:42.804Z,97523.86
2019-05-17T06:31:15.036Z,97525.48
2019-05-17T06:33:43.811Z,97526.81
2019-05-17T06:36:13.798Z,97526.29
2019-05-17T06:38:43.655Z,97522.53
2019-05-17T06:41:13.289Z,97519.61
2019-05-17T06:43:42.927Z,97519.33
2019-05-17T06:46:12.608Z,97515.34
2019-05-17T06:48:42.498Z,97515.06
2019-05-17T06:51:12.279Z,97513.20
2019-05-17T06:53:43.606Z,97513.98
2019-05-17T06:56:13.429Z,97508.36
2019-05-17T06:58:43.056Z,97511.31
2019-05-17T07:01:12.716Z,97508.90
2019-05-17T07:03:42.343Z,97504.59
2019-05-17T07:06:13.645Z,97497.91
2019-05-17T07:08:43.263Z,97494.17
2019-05-17T07:11:12.928Z,97490.66
2019-05-17T07:13:42.550Z,97484.22
2019-05-17T07:16:12.884Z,97479.66
2019-05-17T07:18:42.585Z,97477.76
2019-05-17T07:21:12.217Z,97480.94
2019-05-17T07:23:42.140Z,97476.08
2019-05-17T07:26:12.162Z,97470.98
2019-05-17T07:28:41.898Z,97471.53
2019-05-17T07:31:11.531Z,97468.55
2019-05-17T07:33:41.178Z,97461.81
2019-05-17T07:36:10.810Z,97467.15
2019-05-17T07:38:40.458Z,97462.59
2019-05-17T07:41:10.265Z,97451.09
2019-05-17T07:43:40.533Z,97448.39
2019-05-17T07:46:10.293Z,97452.41
2019-05-17T07:48:40.499Z,97447.82
2019-05-17T07:51:10.432Z,97443.97
2019-05-17T07:53:40.247Z,97438.87
2019-05-17T07:56:10.378Z,97433.72
2019-05-17T07:58:40.534Z,97429.64
2019-05-17T08:01:10.271Z,97430.13
2019-05-17T08:03:40.608Z,97424.72
2019-05-17T08:06:10.884Z,97419.87
2019-05-17T08:08:41.033Z,97416.92
2019-05-17T08:11:10.968Z,97415.75
2019-05-17T08:13:40.592Z,97411.69
2019-05-17T08:16:10.483Z,97404.47
2019-05-17T08:18:40.384Z,97407.58
2019-05-17T08:21:10.455Z,97401.17
2019-05-17T08:23:40.338Z,97400.88
2019-05-17T08:26:10.643Z,97394.39
2019-05-17T08:28:40.769Z,97395.98
2019-05-17T08:31:10.479Z,97387.49
2019-05-17T08:33:40.604Z,97383.92
2019-05-17T08:36:10.676Z,97377.80
2019-05-17T08:38:40.336Z,97379.58
2019-05-17T08:41:10.543Z,97376.15
2019-05-17T08:43:46.604Z,97366.39
2019-05-17T08:46:11.742Z,97367.07
2019-05-17T08:48:41.397Z,97360.73
2019-05-17T08:51:11.182Z,97353.41
2019-05-17T08:53:40.893Z,97351.34
2019-05-17T08:56:10.661Z,97353.22
2019-05-17T08:58:40.552Z,97351.41
2019-05-17T09:01:11.203Z,97346.30
2019-05-17T09:03:41.344Z,97345.69
2019-05-17T09:06:12.540Z,97338.93
2019-05-17T09:08:42.529Z,97346.33
2019-05-17T09:11:12.167Z,97342.75
2019-05-17T09:13:54.649Z,97332.48
2019-05-17T09:16:13.167Z,97337.16
2019-05-17T09:18:42.787Z,97328.64
2019-05-17T09:21:12.496Z,97330.03
2019-05-17T09:23:42.919Z,97335.85
2019-05-17T09:26:12.578Z,97329.13
2019-05-17T09:28:42.204Z,97332.09
2019-05-17T09:31:11.832Z,97321.39
2019-05-17T09:33:41.479Z,97321.34
2019-05-17T09:36:11.469Z,97325.23
2019-05-17T09:38:41.103Z,97326.48
2019-05-17T09:41:10.737Z,97322.62
2019-05-17T09:43:40.425Z,97320.21
2019-05-17T09:46:10.766Z,97318.42
2019-05-17T09:48:40.647Z,97314.19
2019-05-17T09:51:10.600Z,97313.44
2019-05-17T09:53:40.325Z,97309.55
2019-05-17T09:56:10.096Z,97306.48
2019-05-17T09:58:40.044Z,97304.21
2019-05-17T10:01:10.017Z,97302.81
2019-05-17T10:03:39.879Z,97301.78
2019-05-17T10:06:09.866Z,97296.09
2019-05-17T10:08:39.565Z,97284.39
2019-05-17T10:11:11.989Z,97285.75
2019-05-17T10:13:40.573Z,97295.86
2019-05-17T10:16:10.256Z,97283.80
2019-05-17T10:18:40.206Z,97284.50
2019-05-17T10:21:10.499Z,97281.34
2019-05-17T10:23:40.797Z,97275.08
2019-05-17T10:26:10.541Z,97272.52
2019-05-17T10:28:40.194Z,97272.58
2019-05-17T10:31:11.662Z,97269.34
2019-05-17T10:33:41.256Z,97264.36
2019-05-17T10:36:10.877Z,97262.53
2019-05-17T10:38:40.531Z,97261.89
2019-05-17T10:41:10.333Z,97260.44
2019-05-17T10:43:40.003Z,97264.52
2019-05-17T10:46:10.548Z,97261.20
2019-05-17T10:48:41.251Z,97250.66
2019-05-17T10:51:13.411Z,97250.73
2019-05-17T10:53:42.551Z,97249.19
2019-05-17T10:56:12.270Z,97241.62
2019-05-17T10:58:42.261Z,97237.98
2019-05-17T11:01:11.909Z,97243.47
2019-05-17T11:03:41.529Z,97242.20
2019-05-17T11:06:11.257Z,97241.45
2019-05-17T11:08:40.997Z,97238.62
2019-05-17T11:11:10.756Z,97230.92
2019-05-17T11:13:40.400Z,97226.13
2019-05-17T11:16:10.015Z,97224.33
2019-05-17T11:18:39.827Z,97221.38
2019-05-17T11:21:09.847Z,97222.37
2019-05-17T11:23:39.502Z,97223.80
2019-05-17T11:26:09.204Z,97214.61
2019-05-17T11:28:38.857Z,97215.83
2019-05-17T11:31:08.547Z,97217.68
2019-05-17T11:33:38.200Z,97210.48
2019-05-17T11:36:07.824Z,97208.28
2019-05-17T11:38:37.493Z,97205.58
2019-05-17T11:41:20.540Z,97202.83
2019-05-17T11:43:38.519Z,97201.58
2019-05-17T11:46:08.352Z,97206.16
2019-05-17T11:48:38.013Z,97192.86
2019-05-17T11:51:07.655Z,97197.55
2019-05-17T11:53:37.338Z,97193.66
2019-05-17T11:56:07.190Z,97192.12
2019-05-17T11:58:36.812Z,97187.73
2019-05-17T12:01:06.467Z,97191.89
2019-05-17T12:03:36.090Z,97187.84
2019-05-17T12:06:05.960Z,97178.72
2019-05-17T12:08:35.588Z,97173.82
2019-05-17T12:11:05.370Z,97178.32
2019-05-17T12:13:34.997Z,97175.23
2019-05-17T12:16:04.873Z,97167.23
2019-05-17T12:18:34.528Z,97167.27
2019-05-17T12:21:04.196Z,97163.37
2019-05-17T12:23:33.823Z,97166.02
2019-05-17T12:26:03.511Z,97164.03
2019-05-17T12:28:33.159Z,97163.23
2019-05-17T12:31:02.792Z,97155.96
2019-05-17T12:33:32.498Z,97162.03
2019-05-17T12:36:02.126Z,97165.49
2019-05-17T12:38:31.769Z,97170.91
2019-05-17T12:41:01.388Z,97173.48
2019-05-17T12:43:31.031Z,97166.28
2019-05-17T12:46:01.797Z,97169.78
2019-05-17T12:48:31.590Z,97164.48
2019-05-17T12:51:01.215Z,97161.74
2019-05-17T12:53:30.840Z,97153.95
2019-05-17T12:56:00.489Z,97153.48
2019-05-17T12:58:30.109Z,97157.91
2019-05-17T13:00:59.754Z,97159.90
2019-05-17T13:03:29.389Z,97159.17
2019-05-17T13:05:59.031Z,97153.96
2019-05-17T13:08:28.659Z,97157.16
2019-05-17T13:10:58.305Z,97157.53
2019-05-17T13:13:28.001Z,97160.06
2019-05-17T13:15:57.673Z,97155.30
2019-05-17T13:18:27.287Z,97151.95
2019-05-17T13:20:56.908Z,97152.59
2019-05-17T13:23:26.556Z,97148.81
2019-05-17T13:25:56.172Z,97153.80
2019-05-17T13:28:25.818Z,97145.77
2019-05-17T13:30:55.441Z,97146.17
2019-05-17T13:33:28.537Z,97148.48
2019-05-17T13:35:56.452Z,97143.77
2019-05-17T13:38:26.098Z,97143.17
2019-05-17T13:40:55.748Z,97142.41
2019-05-17T13:43:25.417Z,97138.91
2019-05-17T13:45:55.103Z,97139.88
2019-05-17T13:48:24.744Z,97146.91
2019-05-17T13:50:54.427Z,97144.75
2019-05-17T13:53:24.049Z,97138.95
2019-05-17T13:55:53.806Z,97142.45
2019-05-17T13:58:23.445Z,97143.93
2019-05-17T14:00:53.095Z,97142.21
2019-05-17T14:03:22.724Z,97157.56
2019-05-17T14:05:52.370Z,97165.75
2019-05-17T14:08:22.002Z,97170.58
2019-05-17T14:10:51.641Z,97170.22
2019-05-17T14:13:21.268Z,97180.78
2019-05-17T14:15:50.879Z,97180.03
2019-05-17T14:18:21.012Z,97181.38
2019-05-17T14:20:50.628Z,97153.93
2019-05-17T14:23:20.282Z,97139.69
2019-05-17T14:25:49.895Z,97141.39
2019-05-17T14:28:19.557Z,97134.02
2019-05-17T14:30:49.165Z,97135.25
2019-05-17T14:33:18.810Z,97138.05
2019-05-17T14:35:48.425Z,97146.53
2019-05-17T14:38:18.112Z,97141.56
2019-05-17T14:41:05.677Z,97141.13
2019-05-17T14:43:19.524Z,97138.79
2019-05-17T14:45:49.210Z,97143.00
2019-05-17T14:48:18.862Z,97140.11
2019-05-17T14:50:48.508Z,97145.66
2019-05-17T14:53:18.192Z,97143.50
2019-05-17T14:55:47.859Z,97143.29
2019-05-17T14:58:17.498Z,97139.89
2019-05-17T15:00:47.124Z,97149.39
2019-05-17T15:03:16.831Z,97145.09
2019-05-17T15:05:46.501Z,97147.25
2019-05-17T15:08:16.515Z,97154.70
2019-05-17T15:10:46.140Z,97178.84
2019-05-17T15:13:15.846Z,97181.70
2019-05-17T15:15:45.503Z,97177.05
2019-05-17T15:18:15.146Z,97190.10
2019-05-17T15:20:44.835Z,97192.93
2019-05-17T15:23:14.479Z,97200.30
2019-05-17T15:25:44.102Z,97201.05
2019-05-17T15:28:13.751Z,97199.42
2019-05-17T15:30:43.370Z,97214.59
2019-05-17T15:33:13.046Z,97218.66
2019-05-17T15:35:42.722Z,97220.16
2019-05-17T15:38:12.411Z,97230.19
2019-05-17T15:40:42.594Z,97226.84
2019-05-17T15:43:12.281Z,97229.63
2019-05-17T15:45:41.996Z,97225.53
2019-05-17T15:48:11.738Z,97220.75
2019-05-17T15:50:41.557Z,97219.80
2019-05-17T15:53:11.182Z,97225.01
2019-05-17T15:55:40.829Z,97219.95
2019-05-17T15:58:10.450Z,97219.48
2019-05-17T16:00:40.170Z,97214.30
2019-05-17T16:03:09.795Z,97211.67
2019-05-17T16:05:39.446Z,97217.58
2019-05-17T16:08:09.077Z,97232.33
2019-05-17T16:10:39.638Z,97232.27
2019-05-17T16:13:09.397Z,97217.72
2019-05-17T16:15:39.042Z,97225.82
2019-05-17T16:18:08.664Z,97230.97
2019-05-17T16:20:38.280Z,97233.83
2019-05-17T16:23:08.028Z,97219.81
2019-05-17T16:25:38.447Z,97202.54
2019-05-17T16:28:08.098Z,97185.20
2019-05-17T16:30:37.717Z,97178.30
2019-05-17T16:33:07.439Z,97178.85
2019-05-17T16:35:37.070Z,97203.53
2019-05-17T16:38:06.719Z,97207.30
2019-05-17T16:40:36.368Z,97204.50
2019-05-17T16:43:17.572Z,97185.66
2019-05-17T16:45:37.555Z,97195.87
2019-05-17T16:48:07.358Z,97208.92
2019-05-17T16:50:37.005Z,97203.33
2019-05-17T16:53:07.038Z,97196.27
2019-05-17T16:55:36.775Z,97193.57
2019-05-17T16:58:06.604Z,97198.13
2019-05-17T17:00:42.405Z,97205.38
2019-05-17T17:03:12.162Z,97203.96
2019-05-17T17:05:42.000Z,97197.32
2019-05-17T17:08:11.732Z,97203.37
2019-05-17T17:10:41.410Z,97199.73
2019-05-17T17:13:11.195Z,97202.98
2019-05-17T17:15:40.885Z,97203.12
2019-05-17T17:18:10.670Z,97210.95
2019-05-17T17:20:40.296Z,97210.27
2019-05-17T17:23:10.014Z,97214.45
2019-05-17T17:25:39.698Z,97208.11
2019-05-17T17:28:09.458Z,97207.45
2019-05-17T17:30:39.112Z,97216.56
2019-05-17T17:33:08.733Z,97207.67
2019-05-17T17:35:38.381Z,97214.27
2019-05-17T17:38:08.000Z,97213.72
2019-05-17T17:40:37.725Z,97219.95
2019-05-17T17:43:07.426Z,97220.52
2019-05-17T17:45:37.384Z,97225.02
2019-05-17T17:48:07.284Z,97221.66
2019-05-17T17:50:36.930Z,97214.40
2019-05-17T17:53:08.177Z,97220.55
2019-05-17T17:55:38.312Z,97214.67
2019-05-17T17:58:08.010Z,97213.20
2019-05-17T18:00:37.754Z,97217.55
2019-05-17T18:03:07.430Z,97214.67
2019-05-17T18:05:37.051Z,97214.84
2019-05-17T18:08:06.842Z,97217.39
2019-05-17T18:10:36.776Z,97227.72
2019-05-17T18:13:06.426Z,97220.77
2019-05-17T18:15:46.233Z,97215.30
2019-05-17T18:18:16.712Z,97219.76
2019-05-17T18:20:46.486Z,97225.22
2019-05-17T18:23:20.925Z,97223.59
2019-05-17T18:25:47.664Z,97229.88
2019-05-17T18:28:17.389Z,97228.92
2019-05-17T18:30:47.051Z,97231.12
2019-05-17T18:33:16.750Z,97233.31
2019-05-17T18:35:46.532Z,97235.20
2019-05-17T18:38:19.764Z,97237.29
2019-05-17T18:40:49.440Z,97240.30
2019-05-17T18:43:19.198Z,97243.38
2019-05-17T18:45:49.013Z,97249.86
2019-05-17T18:48:18.785Z,97250.89
2019-05-17T18:50:48.559Z,97250.95
2019-05-17T18:53:18.261Z,97253.10
2019-05-17T18:55:48.028Z,97258.19
2019-05-17T18:58:17.724Z,97279.44
2019-05-17T19:00:47.721Z,97284.14
2019-05-17T19:03:17.435Z,97291.25
2019-05-17T19:05:47.053Z,97295.77
2019-05-17T19:08:16.694Z,97299.61
2019-05-17T19:10:46.462Z,97305.26
2019-05-17T19:13:16.102Z,97312.36
2019-05-17T19:15:46.466Z,97313.79
2019-05-17T19:18:16.252Z,97325.41
2019-05-17T19:20:46.115Z,97339.84
2019-05-17T19:23:15.828Z,97337.36
2019-05-17T19:25:45.470Z,97344.75
2019-05-17T19:28:15.106Z,97352.70
2019-05-17T19:30:44.732Z,97353.05
2019-05-17T19:33:14.403Z,97354.86
2019-05-17T19:35:44.023Z,97357.55
2019-05-17T19:38:13.722Z,97362.08
2019-05-17T19:40:43.442Z,97365.27
2019-05-17T19:43:13.059Z,97362.58
2019-05-17T19:45:44.706Z,97361.59
2019-05-17T19:48:14.341Z,97347.33
2019-05-17T19:50:44.202Z,97355.45
2019-05-17T19:53:13.828Z,97355.09
2019-05-17T19:55:43.538Z,97359.03
2019-05-17T19:58:13.165Z,97351.31
2019-05-17T20:00:42.895Z,97339.57
2019-05-17T20:03:12.515Z,97338.17
2019-05-17T20:05:42.138Z,97333.43
2019-05-17T20:08:11.780Z,97328.97
2019-05-17T20:10:41.570Z,97338.48
2019-05-17T20:13:11.211Z,97332.31
2019-05-17T20:15:40.981Z,97337.34
2019-05-17T20:18:11.078Z,97340.66
2019-05-17T20:20:40.856Z,97342.55
2019-05-17T20:23:10.501Z,97346.89
2019-05-17T20:25:40.152Z,97349.36
2019-05-17T20:28:09.792Z,97350.47
2019-05-17T20:30:39.421Z,97348.30
2019-05-17T20:33:09.087Z,97359.91
2019-05-17T20:35:38.703Z,97353.23
2019-05-17T20:38:08.352Z,97364.48
2019-05-17T20:40:38.193Z,97366.56
2019-05-17T20:43:07.813Z,97365.27
2019-05-17T20:45:37.524Z,97363.08
2019-05-17T20:48:07.138Z,97368.45
2019-05-17T20:50:36.861Z,97365.88
2019-05-17T20:53:17.836Z,97357.95
2019-05-17T20:55:37.876Z,97351.58
2019-05-17T20:58:07.502Z,97351.95
2019-05-17T21:00:37.259Z,97349.89
2019-05-17T21:03:06.919Z,97346.44
2019-05-17T21:05:36.530Z,97345.17
2019-05-17T21:08:06.243Z,97345.98
2019-05-17T21:10:35.860Z,97346.73
2019-05-17T21:13:05.582Z,97347.63
2019-05-17T21:15:47.008Z,97335.53
2019-05-17T21:18:06.656Z,97338.55
2019-05-17T21:20:36.273Z,97340.20
2019-05-17T21:23:05.971Z,97339.39
2019-05-17T21:25:35.658Z,97337.24
2019-05-17T21:28:05.315Z,97344.86
2019-05-17T21:30:35.026Z,97340.02
2019-05-17T21:33:04.725Z,97338.45
2019-05-17T21:35:34.356Z,97338.48
2019-05-17T21:38:04.052Z,97330.29
2019-05-17T21:40:33.695Z,97331.09
2019-05-17T21:43:03.305Z,97325.55
2019-05-17T21:45:32.954Z,97327.52
2019-05-17T21:48:02.572Z,97329.71
2019-05-17T21:50:32.240Z,97320.30
2019-05-17T21:53:03.507Z,97321.84
2019-05-17T21:55:33.120Z,97317.40
2019-05-17T21:58:02.836Z,97315.25
2019-05-17T22:01:04.636Z,97307.23
2019-05-17T22:03:34.255Z,97307.45
2019-05-17T22:06:03.875Z,97313.73
2019-05-17T22:08:33.518Z,97307.36
2019-05-17T22:11:03.156Z,97306.33
2019-05-17T22:13:32.936Z,97317.84
2019-05-17T22:16:17.133Z,97328.94
2019-05-17T22:18:34.057Z,97325.91
2019-05-17T22:21:03.670Z,97322.28
2019-05-17T22:23:33.316Z,97329.36
2019-05-17T22:26:02.934Z,97323.44
2019-05-17T22:28:32.562Z,97328.05
2019-05-17T22:31:02.951Z,97324.59
2019-05-17T22:33:32.570Z,97327.00
2019-05-17T22:36:02.214Z,97332.80
2019-05-17T22:38:31.835Z,97330.95
2019-05-17T22:41:01.506Z,97325.16
2019-05-17T22:43:31.129Z,97325.94
2019-05-17T22:46:00.774Z,97326.74
2019-05-17T22:48:30.395Z,97332.30
2019-05-17T22:51:00.044Z,97331.27
2019-05-17T22:53:29.665Z,97329.92
2019-05-17T22:55:59.278Z,97333.53
2019-05-17T22:58:28.941Z,97336.18
2019-05-17T23:00:58.561Z,97325.33
2019-05-17T23:03:28.207Z,97330.63
2019-05-17T23:05:57.822Z,97331.85
2019-05-17T23:08:27.479Z,97326.67
2019-05-17T23:10:57.106Z,97326.41
2019-05-17T23:13:26.743Z,97324.53
2019-05-17T23:16:03.954Z,97318.58
2019-05-17T23:18:34.911Z,97319.47
2019-05-17T23:21:04.941Z,97328.59
2019-05-17T23:23:34.715Z,97325.30
2019-05-17T23:26:04.482Z,97331.77
2019-05-17T23:28:34.143Z,97338.91
2019-05-17T23:31:03.827Z,97333.49
2019-05-17T23:33:33.453Z,97336.18
2019-05-17T23:36:03.186Z,97345.97
2019-05-17T23:38:32.812Z,97343.86
2019-05-17T23:41:02.460Z,97344.86
2019-05-17T23:43:32.080Z,97343.55
2019-05-17T23:46:01.717Z,97344.62
2019-05-17T23:48:31.346Z,97339.75
2019-05-17T23:51:00.988Z,97346.47
2019-05-17T23:53:30.607Z,97342.55
2019-05-17T23:56:00.251Z,97339.21
2019-05-17T23:58:29.883Z,97344.75
